[x] [x]
.:Aeroklub Partizánske:. |  .:Fotogaléria:. |  .:Videogaléria:. |  .:Foto týždňa:. |  .:Kniha návštev:. |  .:Linky:. |  .:Moje konto:.
 MENU [x]

 METEO [x]

 FotoGaléria [x]

 Slnko [x]
LZPT Partizánske
48°37'N 18°20'E
Východ: 6:45 AM
Západ: 6:27 PM
LZIB Bratislava
48°10'N 17°12'E
Východ: 6:50 AM
Západ: 6:31 PM
LZKZ Košice
48°39'N 21°14'E
Východ: 6:34 AM
Západ: 6:15 PM

 Jazyky [x]
Vyberte jazyk rozhrania:

Slovak English German Polish


  SPRÁVY METAR - ČESKÁ REPUBLIKA
Brno-TuřanyLKTB 021600Z 05003KT 9999 FEW030 17/13 Q1027 NOSIGdekóduj
ČáslavLKCV 021600Z VRB02KT CAVOK 17/13 Q1028 NOSIG RMK BLU BLUdekóduj
HolešovLKHO 010800Z VRB03KT CAVOK 23/17 Q1019dekóduj
Hradec Královedekóduj
Karlovy VaryLKKV 021600Z 10003KT 9999 SCT026 15/12 Q1029dekóduj
KunoviceLKKU 021400Z 03008KT 9999 FEW022 SCT034 17/13 Q1027 RMK REG QNH 1024dekóduj
LiberecLKLB 020602Z 16003KT 9999 FEW016 BKN043 M01/M02 Q1016dekóduj
Mariánsky Láznědekóduj
Náměšť nad OslavouLKNA 021600Z 01006KT CAVOK 15/11 Q1028 NOSIG RMK BLU BLUdekóduj
Ostrava-MošnovLKMT 021600Z 01008KT 5000 -DZ BR OVC006 14/13 Q1028 NOSIGdekóduj
PardubiceLKPD 021600Z 00000KT 9999 NSC 17/13 Q1028 NOSIG RMK BLU BLUdekóduj
Praha-KbelyLKKB 021600Z VRB01KT CAVOK 17/12 Q1028 NOSIGdekóduj
Praha-RuzyněLKPR 021600Z 02004KT 340V070 9999 FEW036 17/10 Q1028 NOSIGdekóduj
PřerovLKPO 010000Z 05005KT CAVOK 04/01 Q1013dekóduj
 FreeFly INFO [x]
COROWA 2009


COROWA 2009


COROWA 2009



 LZPT webcam [x]

 Foto týždňa [x]

 KBO SNA [x]

 Login [x]
Užívateľské meno

Heslo


Ešte nemáš konto? Môžeš si ho vytvoriť. Registrovaný užívateľ má množstvo výhod, napr. posielanie okamžitých správ iným užívateľom, posielanie komentárov s vlastným menom, možnosť pridávať fotografie do galérie...

 Kto je online [x]
Momentálne je online 38 hostí a 0 členov.

Ste anonymný užívateľ. Zaregistrovať sa môžete tu

DETAILY

 Linky [x]

 Počítadlo návštev [x]
Zaznamenali sme
33925386
strán zobrazených od júna 2003

Počet dnešných unikátnych IP adries:
0



www.freefly.sk
Powered by SzMsoft ©2003-2005. Polish translations by Cezary Dąbek. Flying server www.freefly.sk is administrated by maro@freefly.sk - www.artweb.freefly.sk
PHP-Nuke Copyright © 2004 by Francisco Burzi. This is free software, and you may redistribute it under the GPL. PHP-Nuke comes with absolutely no warranty, for details, see the license.